sensor_id;sensor_type;location;lat;lon;timestamp;P1;durP1;ratioP1;P2;durP2;ratioP2
37791;SDS011;29527;55.766;37.570;2023-05-20T00:01:57;6.07;;;1.33;;
37791;SDS011;29527;55.766;37.570;2023-05-20T00:04:22;10.98;;;5.70;;
37791;SDS011;29527;55.766;37.570;2023-05-20T00:06:48;4.63;;;2.10;;
37791;SDS011;29527;55.766;37.570;2023-05-20T00:09:13;2.38;;;1.38;;
37791;SDS011;29527;55.766;37.570;2023-05-20T00:11:39;4.30;;;1.95;;
37791;SDS011;29527;55.766;37.570;2023-05-20T00:14:04;4.32;;;1.30;;
37791;SDS011;29527;55.766;37.570;2023-05-20T00:16:30;2.83;;;1.85;;
37791;SDS011;29527;55.766;37.570;2023-05-20T00:18:56;3.28;;;1.60;;
37791;SDS011;29527;55.766;37.570;2023-05-20T00:21:22;3.55;;;1.20;;
37791;SDS011;29527;55.766;37.570;2023-05-20T00:23:47;4.95;;;1.35;;
37791;SDS011;29527;55.766;37.570;2023-05-20T00:26:12;3.08;;;1.60;;
37791;SDS011;29527;55.766;37.570;2023-05-20T00:28:38;2.80;;;1.38;;
37791;SDS011;29527;55.766;37.570;2023-05-20T00:31:03;2.47;;;1.30;;
37791;SDS011;29527;55.766;37.570;2023-05-20T00:33:29;3.38;;;1.52;;
37791;SDS011;29527;55.766;37.570;2023-05-20T00:35:55;4.40;;;2.35;;
37791;SDS011;29527;55.766;37.570;2023-05-20T00:38:20;4.43;;;3.20;;
37791;SDS011;29527;55.766;37.570;2023-05-20T00:40:46;3.88;;;1.73;;
37791;SDS011;29527;55.766;37.570;2023-05-20T00:43:11;3.78;;;2.05;;
37791;SDS011;29527;55.766;37.570;2023-05-20T00:45:37;2.88;;;1.67;;
37791;SDS011;29527;55.766;37.570;2023-05-20T00:48:03;2.47;;;1.50;;
37791;SDS011;29527;55.766;37.570;2023-05-20T00:50:30;2.22;;;1.38;;
37791;SDS011;29527;55.766;37.570;2023-05-20T00:52:56;2.25;;;1.35;;
37791;SDS011;29527;55.766;37.570;2023-05-20T00:55:23;3.45;;;1.15;;
37791;SDS011;29527;55.766;37.570;2023-05-20T00:57:50;3.80;;;1.30;;
37791;SDS011;29527;55.766;37.570;2023-05-20T01:00:17;2.97;;;1.40;;
37791;SDS011;29527;55.766;37.570;2023-05-20T01:02:43;2.85;;;1.08;;
37791;SDS011;29527;55.766;37.570;2023-05-20T01:05:08;1.70;;;1.17;;
37791;SDS011;29527;55.766;37.570;2023-05-20T01:07:34;2.97;;;1.40;;
37791;SDS011;29527;55.766;37.570;2023-05-20T01:09:59;2.17;;;1.30;;
37791;SDS011;29527;55.766;37.570;2023-05-20T01:12:30;4.47;;;1.10;;
37791;SDS011;29527;55.766;37.570;2023-05-20T01:17:33;3.28;;;1.02;;
37791;SDS011;29527;55.766;37.570;2023-05-20T01:20:03;2.67;;;1.20;;
37791;SDS011;29527;55.766;37.570;2023-05-20T01:22:32;3.28;;;1.08;;
37791;SDS011;29527;55.766;37.570;2023-05-20T01:25:00;4.13;;;1.08;;
37791;SDS011;29527;55.766;37.570;2023-05-20T01:27:29;4.97;;;1.45;;
37791;SDS011;29527;55.766;37.570;2023-05-20T01:29:55;3.97;;;1.25;;
37791;SDS011;29527;55.766;37.570;2023-05-20T01:32:22;3.25;;;1.42;;
37791;SDS011;29527;55.766;37.570;2023-05-20T01:34:48;3.38;;;1.33;;
37791;SDS011;29527;55.766;37.570;2023-05-20T01:37:16;2.53;;;1.60;;
37791;SDS011;29527;55.766;37.570;2023-05-20T01:39:43;3.97;;;1.35;;
37791;SDS011;29527;55.766;37.570;2023-05-20T01:42:10;2.60;;;1.08;;
37791;SDS011;29527;55.766;37.570;2023-05-20T01:44:38;2.42;;;1.05;;
37791;SDS011;29527;55.766;37.570;2023-05-20T01:47:04;4.80;;;1.30;;
37791;SDS011;29527;55.766;37.570;2023-05-20T01:49:29;4.47;;;1.30;;
37791;SDS011;29527;55.766;37.570;2023-05-20T01:51:55;4.20;;;1.05;;
37791;SDS011;29527;55.766;37.570;2023-05-20T01:54:21;1.23;;;0.98;;
37791;SDS011;29527;55.766;37.570;2023-05-20T01:56:48;1.63;;;0.95;;
37791;SDS011;29527;55.766;37.570;2023-05-20T01:59:14;1.27;;;0.93;;
37791;SDS011;29527;55.766;37.570;2023-05-20T02:01:40;2.92;;;0.95;;
37791;SDS011;29527;55.766;37.570;2023-05-20T02:04:05;1.85;;;1.00;;
37791;SDS011;29527;55.766;37.570;2023-05-20T02:06:31;2.33;;;1.00;;
37791;SDS011;29527;55.766;37.570;2023-05-20T02:08:56;2.17;;;1.08;;
37791;SDS011;29527;55.766;37.570;2023-05-20T02:11:22;3.88;;;1.00;;
37791;SDS011;29527;55.766;37.570;2023-05-20T02:13:48;1.45;;;0.80;;
37791;SDS011;29527;55.766;37.570;2023-05-20T02:16:16;4.10;;;0.90;;
37791;SDS011;29527;55.766;37.570;2023-05-20T02:18:42;1.25;;;0.90;;
37791;SDS011;29527;55.766;37.570;2023-05-20T02:21:08;3.15;;;1.10;;
37791;SDS011;29527;55.766;37.570;2023-05-20T02:23:34;2.47;;;0.82;;
37791;SDS011;29527;55.766;37.570;2023-05-20T02:26:00;1.63;;;0.93;;
37791;SDS011;29527;55.766;37.570;2023-05-20T02:28:26;1.80;;;1.05;;
37791;SDS011;29527;55.766;37.570;2023-05-20T02:30:52;1.63;;;0.93;;
37791;SDS011;29527;55.766;37.570;2023-05-20T02:33:17;2.60;;;0.93;;
37791;SDS011;29527;55.766;37.570;2023-05-20T02:35:44;1.27;;;1.00;;
37791;SDS011;29527;55.766;37.570;2023-05-20T02:38:10;2.38;;;0.95;;
37791;SDS011;29527;55.766;37.570;2023-05-20T02:40:36;5.93;;;1.08;;
37791;SDS011;29527;55.766;37.570;2023-05-20T02:43:02;2.95;;;0.95;;
37791;SDS011;29527;55.766;37.570;2023-05-20T02:45:27;2.25;;;0.90;;
37791;SDS011;29527;55.766;37.570;2023-05-20T02:47:53;2.28;;;0.70;;
37791;SDS011;29527;55.766;37.570;2023-05-20T02:50:19;4.63;;;1.00;;
37791;SDS011;29527;55.766;37.570;2023-05-20T02:52:45;2.63;;;0.90;;
37791;SDS011;29527;55.766;37.570;2023-05-20T02:55:11;3.17;;;0.90;;
37791;SDS011;29527;55.766;37.570;2023-05-20T02:57:37;3.58;;;1.20;;
37791;SDS011;29527;55.766;37.570;2023-05-20T03:00:04;4.60;;;1.08;;
37791;SDS011;29527;55.766;37.570;2023-05-20T03:02:32;3.30;;;0.90;;
37791;SDS011;29527;55.766;37.570;2023-05-20T03:04:58;1.85;;;0.82;;
37791;SDS011;29527;55.766;37.570;2023-05-20T03:07:24;2.83;;;0.95;;
37791;SDS011;29527;55.766;37.570;2023-05-20T03:09:50;2.22;;;0.80;;
37791;SDS011;29527;55.766;37.570;2023-05-20T03:12:16;5.30;;;1.02;;
37791;SDS011;29527;55.766;37.570;2023-05-20T03:14:41;3.78;;;1.15;;
37791;SDS011;29527;55.766;37.570;2023-05-20T03:17:07;2.67;;;1.17;;
37791;SDS011;29527;55.766;37.570;2023-05-20T03:19:33;1.20;;;0.98;;
37791;SDS011;29527;55.766;37.570;2023-05-20T03:21:59;7.55;;;0.90;;
37791;SDS011;29527;55.766;37.570;2023-05-20T03:24:25;2.22;;;0.75;;
37791;SDS011;29527;55.766;37.570;2023-05-20T03:26:51;5.80;;;1.40;;
37791;SDS011;29527;55.766;37.570;2023-05-20T03:29:17;3.22;;;0.93;;
37791;SDS011;29527;55.766;37.570;2023-05-20T03:31:42;3.35;;;1.10;;
37791;SDS011;29527;55.766;37.570;2023-05-20T03:34:08;3.00;;;1.15;;
37791;SDS011;29527;55.766;37.570;2023-05-20T03:36:33;2.25;;;1.15;;
37791;SDS011;29527;55.766;37.570;2023-05-20T03:38:59;7.68;;;1.30;;
37791;SDS011;29527;55.766;37.570;2023-05-20T03:41:26;2.28;;;0.90;;
37791;SDS011;29527;55.766;37.570;2023-05-20T03:43:52;8.73;;;1.20;;
37791;SDS011;29527;55.766;37.570;2023-05-20T03:46:17;1.80;;;0.90;;
37791;SDS011;29527;55.766;37.570;2023-05-20T03:48:43;4.82;;;1.17;;
37791;SDS011;29527;55.766;37.570;2023-05-20T03:51:08;2.60;;;1.05;;
37791;SDS011;29527;55.766;37.570;2023-05-20T03:53:34;2.42;;;1.00;;
37791;SDS011;29527;55.766;37.570;2023-05-20T03:55:59;2.58;;;0.95;;
37791;SDS011;29527;55.766;37.570;2023-05-20T03:58:25;3.30;;;1.10;;
37791;SDS011;29527;55.766;37.570;2023-05-20T04:00:53;6.13;;;1.27;;
37791;SDS011;29527;55.766;37.570;2023-05-20T04:03:19;4.53;;;1.20;;
37791;SDS011;29527;55.766;37.570;2023-05-20T04:05:47;8.60;;;1.30;;
37791;SDS011;29527;55.766;37.570;2023-05-20T04:08:12;4.55;;;1.00;;
37791;SDS011;29527;55.766;37.570;2023-05-20T04:10:41;3.88;;;1.08;;
37791;SDS011;29527;55.766;37.570;2023-05-20T04:13:07;3.55;;;1.08;;
37791;SDS011;29527;55.766;37.570;2023-05-20T04:15:36;5.68;;;1.00;;
37791;SDS011;29527;55.766;37.570;2023-05-20T04:18:05;2.75;;;0.85;;
37791;SDS011;29527;55.766;37.570;2023-05-20T04:20:31;2.08;;;1.00;;
37791;SDS011;29527;55.766;37.570;2023-05-20T04:22:57;1.00;;;0.90;;
37791;SDS011;29527;55.766;37.570;2023-05-20T04:25:22;3.58;;;1.08;;
37791;SDS011;29527;55.766;37.570;2023-05-20T04:27:48;1.35;;;1.10;;
37791;SDS011;29527;55.766;37.570;2023-05-20T04:30:14;1.50;;;1.00;;
37791;SDS011;29527;55.766;37.570;2023-05-20T04:32:42;2.72;;;0.90;;
37791;SDS011;29527;55.766;37.570;2023-05-20T04:35:07;3.50;;;1.05;;
37791;SDS011;29527;55.766;37.570;2023-05-20T04:37:35;2.50;;;1.00;;
37791;SDS011;29527;55.766;37.570;2023-05-20T04:40:03;1.63;;;0.90;;
37791;SDS011;29527;55.766;37.570;2023-05-20T04:42:32;3.35;;;0.98;;
37791;SDS011;29527;55.766;37.570;2023-05-20T04:44:58;2.92;;;1.10;;
37791;SDS011;29527;55.766;37.570;2023-05-20T04:47:28;1.88;;;0.98;;
37791;SDS011;29527;55.766;37.570;2023-05-20T04:49:54;1.88;;;1.05;;
37791;SDS011;29527;55.766;37.570;2023-05-20T04:52:24;3.33;;;1.00;;
37791;SDS011;29527;55.766;37.570;2023-05-20T04:54:51;3.92;;;1.20;;
37791;SDS011;29527;55.766;37.570;2023-05-20T04:57:16;4.43;;;1.15;;
37791;SDS011;29527;55.766;37.570;2023-05-20T04:59:45;1.80;;;1.10;;
37791;SDS011;29527;55.766;37.570;2023-05-20T05:02:12;2.80;;;1.10;;
37791;SDS011;29527;55.766;37.570;2023-05-20T05:04:38;5.85;;;1.33;;
37791;SDS011;29527;55.766;37.570;2023-05-20T05:07:04;3.17;;;1.05;;
37791;SDS011;29527;55.766;37.570;2023-05-20T05:09:30;4.32;;;1.17;;
37791;SDS011;29527;55.766;37.570;2023-05-20T05:11:55;4.22;;;1.33;;
37791;SDS011;29527;55.766;37.570;2023-05-20T05:14:21;3.95;;;1.23;;
37791;SDS011;29527;55.766;37.570;2023-05-20T05:16:48;2.15;;;1.20;;
37791;SDS011;29527;55.766;37.570;2023-05-20T05:19:14;6.95;;;1.63;;
37791;SDS011;29527;55.766;37.570;2023-05-20T05:21:40;2.97;;;1.08;;
37791;SDS011;29527;55.766;37.570;2023-05-20T05:24:05;2.55;;;1.30;;
37791;SDS011;29527;55.766;37.570;2023-05-20T05:26:31;3.90;;;1.30;;
37791;SDS011;29527;55.766;37.570;2023-05-20T05:28:56;6.05;;;1.20;;
37791;SDS011;29527;55.766;37.570;2023-05-20T05:31:22;5.25;;;1.30;;
37791;SDS011;29527;55.766;37.570;2023-05-20T05:33:47;5.20;;;1.30;;
37791;SDS011;29527;55.766;37.570;2023-05-20T05:36:13;7.72;;;1.40;;
37791;SDS011;29527;55.766;37.570;2023-05-20T05:38:38;10.00;;;1.30;;
37791;SDS011;29527;55.766;37.570;2023-05-20T05:41:04;8.40;;;1.38;;
37791;SDS011;29527;55.766;37.570;2023-05-20T05:43:29;3.30;;;0.93;;
37791;SDS011;29527;55.766;37.570;2023-05-20T05:45:55;6.78;;;1.20;;
37791;SDS011;29527;55.766;37.570;2023-05-20T05:48:21;5.82;;;1.48;;
37791;SDS011;29527;55.766;37.570;2023-05-20T05:50:47;6.70;;;1.25;;
37791;SDS011;29527;55.766;37.570;2023-05-20T05:53:12;5.47;;;1.85;;
37791;SDS011;29527;55.766;37.570;2023-05-20T05:55:38;4.70;;;1.17;;
37791;SDS011;29527;55.766;37.570;2023-05-20T05:58:04;4.22;;;1.25;;
37791;SDS011;29527;55.766;37.570;2023-05-20T06:00:29;3.92;;;1.08;;
37791;SDS011;29527;55.766;37.570;2023-05-20T06:02:55;5.00;;;1.25;;
37791;SDS011;29527;55.766;37.570;2023-05-20T06:05:20;4.75;;;1.60;;
37791;SDS011;29527;55.766;37.570;2023-05-20T06:07:46;5.82;;;1.27;;
37791;SDS011;29527;55.766;37.570;2023-05-20T06:10:11;4.90;;;1.30;;
37791;SDS011;29527;55.766;37.570;2023-05-20T06:12:37;4.90;;;1.40;;
37791;SDS011;29527;55.766;37.570;2023-05-20T06:15:02;12.75;;;1.92;;
37791;SDS011;29527;55.766;37.570;2023-05-20T06:17:30;5.43;;;1.20;;
37791;SDS011;29527;55.766;37.570;2023-05-20T06:19:55;6.53;;;1.50;;
37791;SDS011;29527;55.766;37.570;2023-05-20T06:22:21;2.40;;;1.20;;
37791;SDS011;29527;55.766;37.570;2023-05-20T06:24:46;7.43;;;1.50;;
37791;SDS011;29527;55.766;37.570;2023-05-20T06:27:12;2.92;;;1.40;;
37791;SDS011;29527;55.766;37.570;2023-05-20T06:29:37;2.45;;;1.15;;
37791;SDS011;29527;55.766;37.570;2023-05-20T06:32:03;5.78;;;1.30;;
37791;SDS011;29527;55.766;37.570;2023-05-20T06:34:29;5.50;;;1.60;;
37791;SDS011;29527;55.766;37.570;2023-05-20T06:36:54;6.03;;;1.60;;
37791;SDS011;29527;55.766;37.570;2023-05-20T06:39:20;5.70;;;1.33;;
37791;SDS011;29527;55.766;37.570;2023-05-20T06:41:46;9.00;;;1.50;;
37791;SDS011;29527;55.766;37.570;2023-05-20T06:44:11;4.72;;;1.35;;
37791;SDS011;29527;55.766;37.570;2023-05-20T06:46:37;5.88;;;1.10;;
37791;SDS011;29527;55.766;37.570;2023-05-20T06:49:02;3.58;;;1.10;;
37791;SDS011;29527;55.766;37.570;2023-05-20T06:51:28;9.77;;;1.45;;
37791;SDS011;29527;55.766;37.570;2023-05-20T06:53:53;5.90;;;1.48;;
37791;SDS011;29527;55.766;37.570;2023-05-20T06:56:19;9.57;;;1.63;;
37791;SDS011;29527;55.766;37.570;2023-05-20T06:58:45;4.45;;;1.30;;
37791;SDS011;29527;55.766;37.570;2023-05-20T07:01:11;5.75;;;1.50;;
37791;SDS011;29527;55.766;37.570;2023-05-20T07:03:36;6.13;;;1.45;;
37791;SDS011;29527;55.766;37.570;2023-05-20T07:06:02;6.22;;;1.20;;
37791;SDS011;29527;55.766;37.570;2023-05-20T07:08:27;6.80;;;1.40;;
37791;SDS011;29527;55.766;37.570;2023-05-20T07:10:56;10.48;;;1.23;;
37791;SDS011;29527;55.766;37.570;2023-05-20T07:13:22;5.93;;;1.67;;
37791;SDS011;29527;55.766;37.570;2023-05-20T07:15:48;5.78;;;1.20;;
37791;SDS011;29527;55.766;37.570;2023-05-20T07:18:14;11.80;;;1.25;;
37791;SDS011;29527;55.766;37.570;2023-05-20T07:20:40;8.50;;;1.30;;
37791;SDS011;29527;55.766;37.570;2023-05-20T07:23:05;6.50;;;1.27;;
37791;SDS011;29527;55.766;37.570;2023-05-20T07:25:31;6.45;;;1.17;;
37791;SDS011;29527;55.766;37.570;2023-05-20T07:27:56;5.30;;;0.88;;
37791;SDS011;29527;55.766;37.570;2023-05-20T07:30:24;5.80;;;1.23;;
37791;SDS011;29527;55.766;37.570;2023-05-20T07:32:50;11.73;;;1.63;;
37791;SDS011;29527;55.766;37.570;2023-05-20T07:35:16;10.90;;;1.60;;
37791;SDS011;29527;55.766;37.570;2023-05-20T07:37:41;13.18;;;1.85;;
37791;SDS011;29527;55.766;37.570;2023-05-20T07:40:07;6.30;;;1.30;;
37791;SDS011;29527;55.766;37.570;2023-05-20T07:42:33;7.65;;;1.10;;
37791;SDS011;29527;55.766;37.570;2023-05-20T07:44:59;8.10;;;1.40;;
37791;SDS011;29527;55.766;37.570;2023-05-20T07:47:24;9.80;;;1.25;;
37791;SDS011;29527;55.766;37.570;2023-05-20T07:49:50;5.57;;;1.20;;
37791;SDS011;29527;55.766;37.570;2023-05-20T07:52:16;9.73;;;2.30;;
37791;SDS011;29527;55.766;37.570;2023-05-20T07:54:41;7.40;;;1.67;;
37791;SDS011;29527;55.766;37.570;2023-05-20T07:57:07;6.43;;;1.83;;
37791;SDS011;29527;55.766;37.570;2023-05-20T07:59:32;8.00;;;1.10;;
37791;SDS011;29527;55.766;37.570;2023-05-20T08:01:58;7.55;;;1.20;;
37791;SDS011;29527;55.766;37.570;2023-05-20T08:04:24;5.03;;;1.40;;
37791;SDS011;29527;55.766;37.570;2023-05-20T08:06:51;7.55;;;1.52;;
37791;SDS011;29527;55.766;37.570;2023-05-20T08:09:17;8.73;;;1.10;;
37791;SDS011;29527;55.766;37.570;2023-05-20T08:11:43;7.28;;;1.17;;
37791;SDS011;29527;55.766;37.570;2023-05-20T08:14:09;5.78;;;1.10;;
37791;SDS011;29527;55.766;37.570;2023-05-20T08:16:35;5.65;;;1.30;;
37791;SDS011;29527;55.766;37.570;2023-05-20T08:19:01;5.22;;;1.40;;
37791;SDS011;29527;55.766;37.570;2023-05-20T08:21:27;5.15;;;1.40;;
37791;SDS011;29527;55.766;37.570;2023-05-20T08:23:53;5.95;;;1.50;;
37791;SDS011;29527;55.766;37.570;2023-05-20T08:26:18;8.45;;;1.27;;
37791;SDS011;29527;55.766;37.570;2023-05-20T08:28:44;5.90;;;1.40;;
37791;SDS011;29527;55.766;37.570;2023-05-20T08:31:10;6.60;;;1.90;;
37791;SDS011;29527;55.766;37.570;2023-05-20T08:33:36;3.53;;;1.20;;
37791;SDS011;29527;55.766;37.570;2023-05-20T08:36:01;7.93;;;1.30;;
37791;SDS011;29527;55.766;37.570;2023-05-20T08:38:27;10.40;;;1.83;;
37791;SDS011;29527;55.766;37.570;2023-05-20T08:40:54;4.18;;;1.30;;
37791;SDS011;29527;55.766;37.570;2023-05-20T08:43:21;2.38;;;1.20;;
37791;SDS011;29527;55.766;37.570;2023-05-20T08:45:47;3.65;;;1.40;;
37791;SDS011;29527;55.766;37.570;2023-05-20T08:48:14;2.70;;;1.50;;
37791;SDS011;29527;55.766;37.570;2023-05-20T08:50:41;8.15;;;1.27;;
37791;SDS011;29527;55.766;37.570;2023-05-20T08:53:09;5.20;;;1.70;;
37791;SDS011;29527;55.766;37.570;2023-05-20T08:55:58;4.68;;;1.20;;
37791;SDS011;29527;55.766;37.570;2023-05-20T08:58:24;4.90;;;1.70;;
37791;SDS011;29527;55.766;37.570;2023-05-20T09:00:50;3.75;;;1.60;;
37791;SDS011;29527;55.766;37.570;2023-05-20T09:03:17;5.53;;;1.70;;
37791;SDS011;29527;55.766;37.570;2023-05-20T09:05:44;4.35;;;2.22;;
37791;SDS011;29527;55.766;37.570;2023-05-20T09:08:11;8.48;;;1.67;;
37791;SDS011;29527;55.766;37.570;2023-05-20T09:10:37;3.25;;;1.60;;
37791;SDS011;29527;55.766;37.570;2023-05-20T09:13:05;4.95;;;1.83;;
37791;SDS011;29527;55.766;37.570;2023-05-20T09:15:32;7.18;;;1.58;;
37791;SDS011;29527;55.766;37.570;2023-05-20T09:17:59;7.00;;;2.70;;
37791;SDS011;29527;55.766;37.570;2023-05-20T09:20:28;4.35;;;1.38;;
37791;SDS011;29527;55.766;37.570;2023-05-20T09:23:00;3.22;;;1.83;;
37791;SDS011;29527;55.766;37.570;2023-05-20T09:25:27;3.65;;;1.30;;
37791;SDS011;29527;55.766;37.570;2023-05-20T09:27:53;6.20;;;1.90;;
37791;SDS011;29527;55.766;37.570;2023-05-20T09:30:19;8.30;;;2.05;;
37791;SDS011;29527;55.766;37.570;2023-05-20T09:32:51;8.98;;;1.50;;
37791;SDS011;29527;55.766;37.570;2023-05-20T09:35:18;6.30;;;1.67;;
37791;SDS011;29527;55.766;37.570;2023-05-20T09:37:44;2.42;;;1.75;;
37791;SDS011;29527;55.766;37.570;2023-05-20T09:40:12;10.05;;;2.63;;
37791;SDS011;29527;55.766;37.570;2023-05-20T09:42:46;10.55;;;1.73;;
37791;SDS011;29527;55.766;37.570;2023-05-20T09:45:16;4.80;;;1.45;;
37791;SDS011;29527;55.766;37.570;2023-05-20T09:47:42;3.90;;;1.95;;
37791;SDS011;29527;55.766;37.570;2023-05-20T09:50:09;4.10;;;1.90;;
37791;SDS011;29527;55.766;37.570;2023-05-20T09:52:37;4.47;;;1.42;;
37791;SDS011;29527;55.766;37.570;2023-05-20T09:55:07;9.57;;;1.63;;
37791;SDS011;29527;55.766;37.570;2023-05-20T09:57:35;7.82;;;1.63;;
37791;SDS011;29527;55.766;37.570;2023-05-20T10:00:02;9.80;;;2.33;;
37791;SDS011;29527;55.766;37.570;2023-05-20T10:02:32;8.15;;;1.63;;
37791;SDS011;29527;55.766;37.570;2023-05-20T10:04:58;3.50;;;1.50;;
37791;SDS011;29527;55.766;37.570;2023-05-20T10:07:50;3.55;;;1.50;;
37791;SDS011;29527;55.766;37.570;2023-05-20T10:21:16;7.43;;;1.50;;
37791;SDS011;29527;55.766;37.570;2023-05-20T10:23:42;5.82;;;1.60;;
37791;SDS011;29527;55.766;37.570;2023-05-20T10:26:08;3.53;;;1.70;;
37791;SDS011;29527;55.766;37.570;2023-05-20T10:28:34;2.45;;;1.45;;
37791;SDS011;29527;55.766;37.570;2023-05-20T10:31:01;4.20;;;1.67;;
37791;SDS011;29527;55.766;37.570;2023-05-20T10:33:28;8.30;;;2.08;;
37791;SDS011;29527;55.766;37.570;2023-05-20T10:35:58;7.00;;;1.63;;
37791;SDS011;29527;55.766;37.570;2023-05-20T10:38:25;3.08;;;1.50;;
37791;SDS011;29527;55.766;37.570;2023-05-20T10:40:51;4.82;;;1.40;;
37791;SDS011;29527;55.766;37.570;2023-05-20T10:43:26;4.35;;;1.80;;
37791;SDS011;29527;55.766;37.570;2023-05-20T10:45:53;10.32;;;2.40;;
37791;SDS011;29527;55.766;37.570;2023-05-20T10:50:45;1.58;;;1.40;;
37791;SDS011;29527;55.766;37.570;2023-05-20T10:53:13;2.17;;;1.40;;
37791;SDS011;29527;55.766;37.570;2023-05-20T10:55:40;3.55;;;1.77;;
37791;SDS011;29527;55.766;37.570;2023-05-20T10:58:12;7.63;;;1.80;;
37791;SDS011;29527;55.766;37.570;2023-05-20T11:00:38;10.52;;;1.92;;
37791;SDS011;29527;55.766;37.570;2023-05-20T11:03:05;4.60;;;1.58;;
37791;SDS011;29527;55.766;37.570;2023-05-20T11:05:31;3.88;;;1.35;;
37791;SDS011;29527;55.766;37.570;2023-05-20T11:08:05;5.43;;;1.77;;
37791;SDS011;29527;55.766;37.570;2023-05-20T11:10:35;3.33;;;1.63;;
37791;SDS011;29527;55.766;37.570;2023-05-20T11:13:01;3.65;;;1.50;;
37791;SDS011;29527;55.766;37.570;2023-05-20T11:15:28;7.20;;;1.50;;
37791;SDS011;29527;55.766;37.570;2023-05-20T11:17:56;4.85;;;1.80;;
37791;SDS011;29527;55.766;37.570;2023-05-20T11:20:24;2.60;;;1.85;;
37791;SDS011;29527;55.766;37.570;2023-05-20T11:22:51;9.65;;;1.88;;
37791;SDS011;29527;55.766;37.570;2023-05-20T11:25:17;4.88;;;1.90;;
37791;SDS011;29527;55.766;37.570;2023-05-20T11:27:43;7.43;;;1.92;;
37791;SDS011;29527;55.766;37.570;2023-05-20T11:30:13;7.35;;;1.92;;
37791;SDS011;29527;55.766;37.570;2023-05-20T11:32:43;7.45;;;2.03;;
37791;SDS011;29527;55.766;37.570;2023-05-20T11:35:24;6.82;;;1.90;;
37791;SDS011;29527;55.766;37.570;2023-05-20T11:37:53;10.50;;;2.22;;
37791;SDS011;29527;55.766;37.570;2023-05-20T11:40:22;5.30;;;1.75;;
37791;SDS011;29527;55.766;37.570;2023-05-20T11:42:51;10.93;;;1.90;;
37791;SDS011;29527;55.766;37.570;2023-05-20T11:45:20;9.90;;;1.80;;
37791;SDS011;29527;55.766;37.570;2023-05-20T11:47:46;4.60;;;1.75;;
37791;SDS011;29527;55.766;37.570;2023-05-20T11:50:23;7.38;;;1.88;;
37791;SDS011;29527;55.766;37.570;2023-05-20T11:52:54;7.03;;;2.20;;
37791;SDS011;29527;55.766;37.570;2023-05-20T11:55:21;7.57;;;1.85;;
37791;SDS011;29527;55.766;37.570;2023-05-20T11:57:47;3.20;;;1.90;;
37791;SDS011;29527;55.766;37.570;2023-05-20T12:00:12;6.07;;;2.10;;
37791;SDS011;29527;55.766;37.570;2023-05-20T12:02:38;6.10;;;1.90;;
37791;SDS011;29527;55.766;37.570;2023-05-20T12:05:03;4.00;;;1.85;;
37791;SDS011;29527;55.766;37.570;2023-05-20T12:07:29;6.10;;;2.05;;
37791;SDS011;29527;55.766;37.570;2023-05-20T12:09:55;7.97;;;1.98;;
37791;SDS011;29527;55.766;37.570;2023-05-20T12:12:20;9.85;;;2.47;;
37791;SDS011;29527;55.766;37.570;2023-05-20T12:14:46;7.78;;;2.10;;
37791;SDS011;29527;55.766;37.570;2023-05-20T12:17:11;3.65;;;2.33;;
37791;SDS011;29527;55.766;37.570;2023-05-20T12:19:37;7.10;;;2.50;;
37791;SDS011;29527;55.766;37.570;2023-05-20T12:22:03;5.00;;;2.00;;
37791;SDS011;29527;55.766;37.570;2023-05-20T12:24:28;3.67;;;1.50;;
37791;SDS011;29527;55.766;37.570;2023-05-20T12:26:54;8.02;;;2.25;;
37791;SDS011;29527;55.766;37.570;2023-05-20T12:29:19;4.88;;;2.00;;
37791;SDS011;29527;55.766;37.570;2023-05-20T12:31:45;3.55;;;1.60;;
37791;SDS011;29527;55.766;37.570;2023-05-20T12:34:11;5.35;;;1.90;;
37791;SDS011;29527;55.766;37.570;2023-05-20T12:36:36;5.45;;;2.03;;
37791;SDS011;29527;55.766;37.570;2023-05-20T12:39:02;4.35;;;1.55;;
37791;SDS011;29527;55.766;37.570;2023-05-20T12:41:27;7.07;;;1.60;;
37791;SDS011;29527;55.766;37.570;2023-05-20T12:43:53;7.22;;;1.92;;
37791;SDS011;29527;55.766;37.570;2023-05-20T12:46:18;7.30;;;2.03;;
37791;SDS011;29527;55.766;37.570;2023-05-20T12:48:44;5.32;;;1.58;;
37791;SDS011;29527;55.766;37.570;2023-05-20T12:51:09;5.72;;;2.00;;
37791;SDS011;29527;55.766;37.570;2023-05-20T12:53:35;2.90;;;1.80;;
37791;SDS011;29527;55.766;37.570;2023-05-20T12:56:00;6.78;;;1.90;;
37791;SDS011;29527;55.766;37.570;2023-05-20T12:58:26;3.40;;;1.70;;
37791;SDS011;29527;55.766;37.570;2023-05-20T13:00:51;3.95;;;1.95;;
37791;SDS011;29527;55.766;37.570;2023-05-20T13:03:17;5.25;;;1.88;;
37791;SDS011;29527;55.766;37.570;2023-05-20T13:05:42;4.07;;;1.70;;
37791;SDS011;29527;55.766;37.570;2023-05-20T13:08:08;5.40;;;2.25;;
37791;SDS011;29527;55.766;37.570;2023-05-20T13:10:35;3.03;;;2.00;;
37791;SDS011;29527;55.766;37.570;2023-05-20T13:13:00;2.15;;;1.92;;
37791;SDS011;29527;55.766;37.570;2023-05-20T13:15:26;11.57;;;2.42;;
37791;SDS011;29527;55.766;37.570;2023-05-20T13:17:52;5.75;;;2.28;;
37791;SDS011;29527;55.766;37.570;2023-05-20T13:20:18;6.88;;;2.30;;
37791;SDS011;29527;55.766;37.570;2023-05-20T13:22:44;5.13;;;2.03;;
37791;SDS011;29527;55.766;37.570;2023-05-20T13:25:09;5.70;;;2.33;;
37791;SDS011;29527;55.766;37.570;2023-05-20T13:27:35;9.00;;;2.33;;
37791;SDS011;29527;55.766;37.570;2023-05-20T13:30:01;6.75;;;2.35;;
37791;SDS011;29527;55.766;37.570;2023-05-20T13:32:27;5.72;;;2.28;;
37791;SDS011;29527;55.766;37.570;2023-05-20T13:34:53;10.57;;;2.53;;
37791;SDS011;29527;55.766;37.570;2023-05-20T13:37:18;6.55;;;2.40;;
37791;SDS011;29527;55.766;37.570;2023-05-20T13:39:44;8.00;;;2.17;;
37791;SDS011;29527;55.766;37.570;2023-05-20T13:42:09;6.85;;;2.30;;
37791;SDS011;29527;55.766;37.570;2023-05-20T13:44:35;6.82;;;2.30;;
37791;SDS011;29527;55.766;37.570;2023-05-20T13:47:00;6.78;;;2.20;;
37791;SDS011;29527;55.766;37.570;2023-05-20T13:49:26;5.75;;;2.00;;
37791;SDS011;29527;55.766;37.570;2023-05-20T13:51:51;8.50;;;2.63;;
37791;SDS011;29527;55.766;37.570;2023-05-20T13:54:17;6.22;;;2.40;;
37791;SDS011;29527;55.766;37.570;2023-05-20T13:56:42;6.25;;;2.20;;
37791;SDS011;29527;55.766;37.570;2023-05-20T13:59:08;5.50;;;2.65;;
37791;SDS011;29527;55.766;37.570;2023-05-20T14:01:33;7.18;;;2.30;;
37791;SDS011;29527;55.766;37.570;2023-05-20T14:03:59;9.60;;;2.22;;
37791;SDS011;29527;55.766;37.570;2023-05-20T14:06:25;13.13;;;2.40;;
37791;SDS011;29527;55.766;37.570;2023-05-20T14:08:52;8.02;;;2.45;;
37791;SDS011;29527;55.766;37.570;2023-05-20T14:11:18;3.30;;;2.28;;
37791;SDS011;29527;55.766;37.570;2023-05-20T14:13:45;4.20;;;2.30;;
37791;SDS011;29527;55.766;37.570;2023-05-20T14:16:11;6.03;;;2.10;;
37791;SDS011;29527;55.766;37.570;2023-05-20T14:18:36;6.28;;;2.38;;
37791;SDS011;29527;55.766;37.570;2023-05-20T14:21:02;6.78;;;2.50;;
37791;SDS011;29527;55.766;37.570;2023-05-20T14:23:27;4.13;;;2.45;;
37791;SDS011;29527;55.766;37.570;2023-05-20T14:25:53;5.63;;;2.35;;
37791;SDS011;29527;55.766;37.570;2023-05-20T14:28:18;8.88;;;2.28;;
37791;SDS011;29527;55.766;37.570;2023-05-20T14:30:44;7.93;;;2.67;;
37791;SDS011;29527;55.766;37.570;2023-05-20T14:33:09;5.72;;;2.30;;
37791;SDS011;29527;55.766;37.570;2023-05-20T14:35:35;4.13;;;2.30;;
37791;SDS011;29527;55.766;37.570;2023-05-20T14:38:00;9.52;;;2.20;;
37791;SDS011;29527;55.766;37.570;2023-05-20T14:40:26;11.10;;;2.80;;
37791;SDS011;29527;55.766;37.570;2023-05-20T14:42:51;7.25;;;2.67;;
37791;SDS011;29527;55.766;37.570;2023-05-20T14:45:18;7.10;;;2.47;;